createdAt,value
2018-02-11T00:00:46.088Z,79.40
2018-02-11T00:03:13.538Z,78.90
2018-02-11T00:05:41.017Z,79.80
2018-02-11T00:08:08.457Z,81.90
2018-02-11T00:10:35.941Z,80.50
2018-02-11T00:13:03.410Z,80.10
2018-02-11T00:15:31.000Z,79.30
2018-02-11T00:17:58.630Z,79.50
2018-02-11T00:20:26.938Z,80.00
2018-02-11T00:22:54.422Z,80.00
2018-02-11T00:25:21.892Z,79.90
2018-02-11T00:27:49.332Z,79.70
2018-02-11T00:30:17.569Z,81.20
2018-02-11T00:32:45.015Z,81.20
2018-02-11T00:35:12.492Z,82.20
2018-02-11T00:37:45.644Z,82.00
2018-02-11T00:40:13.112Z,81.10
2018-02-11T00:42:40.555Z,80.00
2018-02-11T00:45:08.065Z,79.00
2018-02-11T00:47:35.509Z,79.20
2018-02-11T00:50:02.994Z,79.40
2018-02-11T00:52:30.453Z,81.70
2018-02-11T00:54:57.955Z,81.10
2018-02-11T00:57:26.169Z,80.40
2018-02-11T00:59:53.653Z,80.40
2018-02-11T01:02:21.098Z,81.00
2018-02-11T01:04:48.562Z,79.60
2018-02-11T01:07:16.778Z,80.80
2018-02-11T01:09:44.247Z,80.80
2018-02-11T01:12:11.693Z,78.60
2018-02-11T01:14:39.928Z,79.90
2018-02-11T01:17:07.373Z,79.80
2018-02-11T01:19:34.849Z,79.60
2018-02-11T01:22:02.295Z,79.00
2018-02-11T01:24:30.548Z,78.00
2018-02-11T01:26:57.993Z,78.00
2018-02-11T01:29:25.478Z,81.50
2018-02-11T01:31:52.913Z,82.20
2018-02-11T01:34:20.392Z,82.30
2018-02-11T01:36:47.833Z,84.50
2018-02-11T01:39:15.330Z,81.50
2018-02-11T01:41:42.775Z,81.10
2018-02-11T01:44:11.009Z,82.50
2018-02-11T01:46:38.461Z,82.50
2018-02-11T01:49:05.929Z,82.90
2018-02-11T01:51:33.372Z,84.40
2018-02-11T01:54:00.850Z,85.00
2018-02-11T01:56:28.302Z,85.30
2018-02-11T01:58:55.781Z,84.80
2018-02-11T02:01:23.225Z,83.30
2018-02-11T02:03:50.707Z,81.80
2018-02-11T02:06:18.150Z,80.30
2018-02-11T02:08:45.616Z,79.20
2018-02-11T02:11:13.061Z,80.50
2018-02-11T02:13:40.664Z,82.90
2018-02-11T02:16:08.105Z,83.10
2018-02-11T02:18:35.594Z,83.30
2018-02-11T02:21:03.029Z,83.30
2018-02-11T02:23:31.264Z,83.80
2018-02-11T02:25:58.711Z,83.80
2018-02-11T02:28:26.210Z,83.90
2018-02-11T02:30:53.658Z,83.10
2018-02-11T02:33:21.133Z,82.00
2018-02-11T02:35:48.645Z,83.20
2018-02-11T02:38:16.189Z,84.60
2018-02-11T02:40:43.625Z,84.80
2018-02-11T02:43:11.861Z,84.60
2018-02-11T02:45:39.301Z,84.50
2018-02-11T02:48:06.772Z,84.90
2018-02-11T02:53:25.380Z,81.50
2018-02-11T02:55:52.942Z,81.50
2018-02-11T02:58:20.389Z,80.40
2018-02-11T03:00:48.601Z,77.90
2018-02-11T03:03:16.040Z,77.90
2018-02-11T03:05:44.259Z,75.50
2018-02-11T03:08:11.701Z,75.50
2018-02-11T03:10:39.150Z,72.40
2018-02-11T03:13:06.593Z,73.20
2018-02-11T03:15:34.037Z,76.30
2018-02-11T03:18:01.489Z,75.80
2018-02-11T03:20:29.709Z,71.20
2018-02-11T03:22:57.278Z,71.10
2018-02-11T03:25:24.713Z,72.60
2018-02-11T03:27:52.928Z,71.40
2018-02-11T03:30:20.431Z,71.20
2018-02-11T03:32:47.893Z,71.30
2018-02-11T03:35:15.363Z,70.70
2018-02-11T03:37:42.856Z,68.50
2018-02-11T03:40:10.314Z,69.00
2018-02-11T03:42:37.761Z,72.20
2018-02-11T03:45:05.203Z,71.80
2018-02-11T03:47:33.418Z,73.10
2018-02-11T03:50:00.918Z,73.10
2018-02-11T03:52:28.369Z,72.30
2018-02-11T03:54:55.816Z,68.90
2018-02-11T03:57:23.269Z,67.60
2018-02-11T03:59:50.715Z,67.10
2018-02-11T04:02:18.172Z,66.40
2018-02-11T04:04:45.654Z,68.40
2018-02-11T04:07:13.096Z,65.50
2018-02-11T04:09:40.546Z,63.40
2018-02-11T04:12:07.988Z,63.70
2018-02-11T04:14:35.436Z,63.60
2018-02-11T04:17:02.884Z,62.90
2018-02-11T04:19:30.376Z,63.50
2018-02-11T04:21:57.870Z,63.70
2018-02-11T04:24:26.092Z,61.00
2018-02-11T04:26:53.542Z,61.00
2018-02-11T04:29:21.757Z,62.20
2018-02-11T04:31:49.252Z,62.20
2018-02-11T04:34:16.696Z,61.10
2018-02-11T04:36:44.142Z,61.10
2018-02-11T04:39:12.365Z,61.50
2018-02-11T04:41:39.810Z,61.50
2018-02-11T04:44:08.025Z,61.00
2018-02-11T04:46:35.463Z,61.00
2018-02-11T04:49:03.693Z,62.10
2018-02-11T04:51:31.151Z,62.00
2018-02-11T04:53:58.593Z,60.80
2018-02-11T04:56:26.854Z,60.60
2018-02-11T04:58:54.301Z,60.50
2018-02-11T05:01:21.741Z,61.10
2018-02-11T05:03:49.189Z,62.00
2018-02-11T05:06:17.397Z,62.10
2018-02-11T05:08:44.844Z,62.10
2018-02-11T05:11:12.284Z,61.20
2018-02-11T05:13:39.736Z,61.20
2018-02-11T05:16:07.184Z,62.10
2018-02-11T05:18:34.661Z,64.10
2018-02-11T05:21:02.092Z,64.20
2018-02-11T05:23:29.546Z,66.00
2018-02-11T05:25:57.001Z,63.40
2018-02-11T05:28:24.457Z,61.80
2018-02-11T05:30:51.901Z,61.50
2018-02-11T05:33:19.353Z,61.20
2018-02-11T05:35:47.569Z,59.60
2018-02-11T05:38:15.111Z,59.60
2018-02-11T05:40:43.329Z,59.30
2018-02-11T05:43:10.772Z,59.30
2018-02-11T05:45:38.989Z,61.00
2018-02-11T05:48:06.483Z,61.00
2018-02-11T05:50:34.652Z,58.50
2018-02-11T05:53:02.090Z,58.50
2018-02-11T05:55:30.312Z,56.90
2018-02-11T05:57:57.761Z,56.90
2018-02-11T06:00:25.213Z,57.10
2018-02-11T06:02:53.469Z,57.60
2018-02-11T06:05:20.921Z,57.60
2018-02-11T06:07:48.382Z,57.40
2018-02-11T06:10:15.829Z,56.40
2018-02-11T06:12:44.043Z,58.00
2018-02-11T06:15:11.501Z,58.00
2018-02-11T06:17:39.552Z,56.60
2018-02-11T06:20:07.777Z,54.70
2018-02-11T06:22:35.228Z,54.70
2018-02-11T06:25:03.456Z,54.40
2018-02-11T06:27:30.908Z,54.40
2018-02-11T06:29:58.361Z,53.70
2018-02-11T06:32:25.820Z,56.40
2018-02-11T06:34:54.037Z,56.20
2018-02-11T06:37:21.889Z,56.20
2018-02-11T06:39:50.218Z,58.90
2018-02-11T06:42:17.691Z,58.90
2018-02-11T06:44:45.146Z,54.40
2018-02-11T06:47:12.584Z,52.70
2018-02-11T06:49:40.069Z,56.50
2018-02-11T06:52:08.271Z,52.90
2018-02-11T06:54:35.741Z,52.90
2018-02-11T06:57:03.184Z,52.10
2018-02-11T06:59:31.421Z,49.90
2018-02-11T07:01:59.881Z,49.90
2018-02-11T07:04:28.140Z,52.50
2018-02-11T07:06:56.581Z,52.50
2018-02-11T07:09:24.057Z,53.20
2018-02-11T07:11:51.502Z,53.50
2018-02-11T07:14:19.736Z,55.00
2018-02-11T07:16:47.176Z,55.00
2018-02-11T07:19:14.649Z,55.30
2018-02-11T07:21:42.163Z,53.50
2018-02-11T07:24:09.625Z,53.00
2018-02-11T07:26:37.101Z,55.00
2018-02-11T07:29:04.581Z,52.80
2018-02-11T07:31:32.026Z,51.20
2018-02-11T07:33:59.497Z,52.20
2018-02-11T07:36:26.945Z,55.20
2018-02-11T07:38:54.392Z,57.90
2018-02-11T07:41:22.629Z,54.70
2018-02-11T07:43:50.118Z,54.70
2018-02-11T07:46:17.562Z,54.40
2018-02-11T07:48:45.038Z,55.60
2018-02-11T07:51:12.480Z,55.80
2018-02-11T07:53:39.964Z,56.60
2018-02-11T07:56:07.413Z,56.70
2018-02-11T07:58:35.644Z,58.00
2018-02-11T08:01:03.098Z,58.00
2018-02-11T08:03:30.584Z,60.70
2018-02-11T08:05:58.049Z,59.90
2018-02-11T08:08:25.530Z,60.00
2018-02-11T08:10:52.973Z,63.70
2018-02-11T08:13:20.453Z,63.00
2018-02-11T08:15:47.970Z,63.60
2018-02-11T08:18:15.455Z,63.20
2018-02-11T08:20:42.896Z,63.50
2018-02-11T08:23:10.379Z,61.80
2018-02-11T08:25:37.840Z,62.30
2018-02-11T08:28:05.288Z,63.30
2018-02-11T08:30:32.738Z,59.50
2018-02-11T08:33:00.339Z,66.30
2018-02-11T08:35:27.808Z,66.90
2018-02-11T08:37:55.269Z,63.00
2018-02-11T08:40:22.737Z,62.20
2018-02-11T08:42:50.219Z,62.50
2018-02-11T08:45:17.713Z,65.10
2018-02-11T08:47:45.128Z,64.10
2018-02-11T08:50:12.568Z,62.10
2018-02-11T08:52:40.907Z,64.40
2018-02-11T08:55:08.342Z,64.40
2018-02-11T08:57:36.577Z,70.60
2018-02-11T09:00:04.033Z,70.50
2018-02-11T09:02:31.469Z,74.00
2018-02-11T09:04:58.982Z,78.70
2018-02-11T09:07:26.561Z,79.90
2018-02-11T09:09:54.176Z,79.20
2018-02-11T09:12:21.622Z,81.70
2018-02-11T09:14:50.487Z,85.00
2018-02-11T09:17:18.011Z,85.50
2018-02-11T09:19:45.481Z,85.50
2018-02-11T09:22:12.944Z,86.80
2018-02-11T09:24:40.453Z,87.70
2018-02-11T09:27:07.892Z,87.80
2018-02-11T09:29:35.380Z,88.00
2018-02-11T09:32:02.857Z,89.70
2018-02-11T09:34:30.365Z,90.30
2018-02-11T09:36:57.823Z,90.60
2018-02-11T09:39:26.352Z,87.70
2018-02-11T09:41:53.819Z,87.70
2018-02-11T09:44:21.357Z,88.70
2018-02-11T09:46:49.582Z,87.20
2018-02-11T09:49:17.065Z,87.20
2018-02-11T09:51:44.561Z,87.80
2018-02-11T09:54:12.038Z,87.60
2018-02-11T09:56:39.514Z,87.10
2018-02-11T09:59:07.769Z,90.40
2018-02-11T10:01:35.217Z,90.40
2018-02-11T10:04:02.700Z,90.70
2018-02-11T10:06:30.189Z,91.80
2018-02-11T10:08:57.716Z,91.90
2018-02-11T10:11:25.933Z,92.70
2018-02-11T10:13:53.493Z,92.70
2018-02-11T10:16:20.992Z,92.90
2018-02-11T10:18:48.461Z,91.80
2018-02-11T10:21:15.909Z,91.90
2018-02-11T10:23:43.377Z,91.00
2018-02-11T10:26:10.820Z,91.60
2018-02-11T10:28:39.648Z,92.00
2018-02-11T10:31:07.100Z,91.90
2018-02-11T10:33:35.481Z,91.10
2018-02-11T10:36:02.921Z,91.10
2018-02-11T10:38:30.380Z,90.80
2018-02-11T10:40:57.829Z,90.00
2018-02-11T10:43:25.273Z,89.70
2018-02-11T10:45:53.510Z,90.30
2018-02-11T10:48:20.953Z,90.30
2018-02-11T10:50:48.411Z,90.80
2018-02-11T10:53:16.715Z,90.80
2018-02-11T10:55:44.184Z,90.70
2018-02-11T10:58:11.685Z,90.70
2018-02-11T11:00:39.140Z,90.30
2018-02-11T11:03:06.617Z,90.30
2018-02-11T11:05:34.065Z,90.50
2018-02-11T11:08:01.562Z,90.80
2018-02-11T11:10:29.024Z,90.90
2018-02-11T11:12:57.160Z,90.80
2018-02-11T11:15:24.621Z,90.70
2018-02-11T11:17:53.270Z,90.70
2018-02-11T11:20:20.713Z,91.00
2018-02-11T11:22:49.065Z,90.80
2018-02-11T11:25:16.524Z,90.80
2018-02-11T11:27:44.013Z,91.00
2018-02-11T11:30:11.654Z,91.00
2018-02-11T11:32:39.100Z,90.70
2018-02-11T11:35:07.477Z,90.90
2018-02-11T11:37:35.752Z,91.20
2018-02-11T11:40:03.201Z,91.20
2018-02-11T11:42:30.657Z,91.00
2018-02-11T11:44:58.206Z,90.70
2018-02-11T11:47:25.705Z,90.80
2018-02-11T11:49:53.189Z,90.90
2018-02-11T11:52:20.661Z,91.10
2018-02-11T11:54:48.132Z,91.50
2018-02-11T11:57:15.584Z,92.00
2018-02-11T11:59:43.084Z,92.50
2018-02-11T12:02:10.527Z,92.90
2018-02-11T12:04:37.996Z,93.30
2018-02-11T12:07:05.448Z,93.90
2018-02-11T12:09:32.943Z,94.20
2018-02-11T12:12:00.436Z,95.00
2018-02-11T12:14:27.888Z,95.40
2018-02-11T12:16:55.349Z,96.10
2018-02-11T12:19:22.820Z,96.50
2018-02-11T12:21:50.262Z,96.20
2018-02-11T12:24:18.516Z,96.60
2018-02-11T12:26:46.066Z,96.50
2018-02-11T12:29:13.535Z,96.70
2018-02-11T12:31:40.975Z,97.00
2018-02-11T12:34:08.445Z,97.00
2018-02-11T12:36:35.891Z,96.80
2018-02-11T12:39:04.129Z,97.70
2018-02-11T12:41:31.605Z,97.70
2018-02-11T12:43:59.058Z,97.50
2018-02-11T12:46:26.619Z,97.80
2018-02-11T12:48:54.089Z,97.80
2018-02-11T12:51:21.531Z,97.60
2018-02-11T12:53:49.772Z,98.40
2018-02-11T12:56:17.217Z,98.10
2018-02-11T12:58:44.693Z,98.30
2018-02-11T13:01:12.133Z,98.10
2018-02-11T13:03:39.647Z,98.00
2018-02-11T13:06:07.101Z,97.90
2018-02-11T13:08:34.574Z,98.20
2018-02-11T13:11:02.046Z,98.00
2018-02-11T13:13:29.512Z,97.40
2018-02-11T13:15:58.425Z,97.80
2018-02-11T13:18:25.895Z,97.80
2018-02-11T13:20:53.337Z,97.60
2018-02-11T13:23:20.885Z,97.10
2018-02-11T13:25:48.373Z,97.40
2018-02-11T13:28:15.825Z,96.80
2018-02-11T13:30:43.270Z,97.00
2018-02-11T13:33:10.736Z,97.40
2018-02-11T13:35:38.192Z,96.90
2018-02-11T13:38:05.984Z,97.00
2018-02-11T13:40:33.432Z,96.70
2018-02-11T13:43:01.696Z,96.50
2018-02-11T13:45:29.969Z,96.90
2018-02-11T13:47:57.434Z,96.80
2018-02-11T13:50:24.909Z,97.30
2018-02-11T13:52:52.366Z,97.60
2018-02-11T13:55:19.829Z,98.00
2018-02-11T13:57:47.281Z,97.70
2018-02-11T14:00:14.753Z,97.70
2018-02-11T14:02:43.100Z,98.50
2018-02-11T14:05:10.576Z,98.90
2018-02-11T14:07:38.033Z,99.90
2018-02-11T14:10:05.496Z,98.70
2018-02-11T14:12:32.944Z,97.10
2018-02-11T14:15:00.417Z,97.50
2018-02-11T14:17:27.862Z,98.50
2018-02-11T14:19:55.340Z,98.10
2018-02-11T14:22:22.782Z,98.60
2018-02-11T14:24:51.008Z,98.40
2018-02-11T14:27:18.452Z,98.30
2018-02-11T14:29:46.688Z,99.90
2018-02-11T14:32:14.142Z,99.90
2018-02-11T14:34:41.601Z,99.90
2018-02-11T14:37:09.040Z,98.10
2018-02-11T14:39:37.285Z,98.20
2018-02-11T14:42:04.742Z,98.20
2018-02-11T14:44:32.235Z,97.90
2018-02-11T14:46:59.677Z,98.10
2018-02-11T14:49:27.131Z,98.50
2018-02-11T14:54:18.744Z,98.80
2018-02-11T14:56:46.230Z,97.50
2018-02-11T14:59:13.680Z,97.40
2018-02-11T15:01:41.150Z,98.10
2018-02-11T15:04:08.592Z,97.60
2018-02-11T15:06:36.105Z,97.90
2018-02-11T15:09:04.332Z,98.40
2018-02-11T15:11:31.805Z,98.40
2018-02-11T15:13:59.246Z,98.70
2018-02-11T15:16:26.727Z,98.90
2018-02-11T15:18:54.941Z,98.80
2018-02-11T15:21:22.413Z,98.80
2018-02-11T15:23:49.860Z,98.60
2018-02-11T15:26:18.101Z,99.00
2018-02-11T15:28:45.545Z,99.00
2018-02-11T15:31:13.041Z,99.10
2018-02-11T15:33:40.602Z,99.20
2018-02-11T15:36:08.129Z,99.30
2018-02-11T15:38:35.619Z,99.40
2018-02-11T15:41:03.155Z,99.80
2018-02-11T15:43:30.647Z,99.40
2018-02-11T15:45:58.128Z,99.00
2018-02-11T15:48:26.417Z,99.20
2018-02-11T15:50:54.673Z,99.30
2018-02-11T15:53:22.106Z,99.20
2018-02-11T15:55:49.576Z,99.80
2018-02-11T15:58:17.025Z,99.50
2018-02-11T16:00:45.256Z,99.90
2018-02-11T16:03:12.697Z,99.90
2018-02-11T16:05:40.173Z,99.90
2018-02-11T16:08:07.629Z,99.90
2018-02-11T16:10:35.101Z,99.90
2018-02-11T16:13:02.545Z,99.90
2018-02-11T16:15:30.021Z,99.90
2018-02-11T16:17:57.478Z,99.90
2018-02-11T16:20:24.938Z,99.90
2018-02-11T16:22:52.413Z,99.90
2018-02-11T16:25:19.865Z,99.90
2018-02-11T16:27:47.338Z,99.90
2018-02-11T16:30:14.901Z,99.90
2018-02-11T16:32:42.439Z,99.90
2018-02-11T16:35:09.836Z,99.90
2018-02-11T16:37:37.318Z,99.90
2018-02-11T16:40:04.798Z,99.90
2018-02-11T16:42:32.330Z,99.90
2018-02-11T16:45:00.530Z,99.90
2018-02-11T16:47:28.010Z,99.90
2018-02-11T16:49:55.479Z,99.90
2018-02-11T16:52:22.916Z,99.90
2018-02-11T16:54:51.157Z,99.90
2018-02-11T16:57:19.379Z,99.90
2018-02-11T16:59:46.840Z,99.90
2018-02-11T17:02:14.336Z,99.90
2018-02-11T17:04:42.542Z,99.90
2018-02-11T17:07:09.988Z,99.90
2018-02-11T17:09:38.213Z,99.90
2018-02-11T17:12:05.681Z,99.90
2018-02-11T17:14:33.131Z,99.90
2018-02-11T17:17:01.375Z,99.90
2018-02-11T17:19:28.961Z,99.90
2018-02-11T17:21:56.405Z,99.90
2018-02-11T17:24:23.874Z,99.90
2018-02-11T17:26:51.313Z,99.90
2018-02-11T17:29:18.791Z,99.90
2018-02-11T17:31:46.267Z,99.90
2018-02-11T17:34:13.753Z,99.90
2018-02-11T17:36:41.264Z,99.90
2018-02-11T17:39:08.760Z,99.90
2018-02-11T17:41:36.367Z,99.90
2018-02-11T17:44:03.854Z,99.90
2018-02-11T17:46:31.345Z,99.90
2018-02-11T17:48:58.885Z,99.90
2018-02-11T17:51:26.369Z,99.90
2018-02-11T17:53:53.905Z,99.90
2018-02-11T17:56:21.368Z,99.90
2018-02-11T17:58:48.848Z,99.90
2018-02-11T18:01:16.301Z,99.90
2018-02-11T18:03:43.785Z,99.90
2018-02-11T18:06:11.253Z,99.90
2018-02-11T18:08:38.771Z,99.90
2018-02-11T18:11:06.225Z,99.90
2018-02-11T18:13:33.714Z,99.90
2018-02-11T18:16:01.144Z,99.90
2018-02-11T18:18:28.620Z,99.90
2018-02-11T18:20:56.059Z,99.90
2018-02-11T18:23:24.292Z,99.90
2018-02-11T18:25:51.737Z,99.90
2018-02-11T18:28:19.213Z,99.90
2018-02-11T18:30:46.686Z,99.90
2018-02-11T18:33:14.129Z,99.90
2018-02-11T18:35:41.608Z,99.90
2018-02-11T18:38:09.823Z,99.90
2018-02-11T18:40:37.293Z,99.90
2018-02-11T18:43:04.740Z,99.90
2018-02-11T18:45:32.981Z,99.90
2018-02-11T18:48:00.431Z,99.90
2018-02-11T18:50:27.901Z,99.90
2018-02-11T18:52:55.353Z,99.90
2018-02-11T18:55:22.829Z,99.90
2018-02-11T18:57:50.269Z,99.90
2018-02-11T19:00:18.529Z,99.90
2018-02-11T19:02:45.982Z,99.90
2018-02-11T19:05:13.452Z,99.90
2018-02-11T19:07:40.897Z,99.90
2018-02-11T19:10:08.368Z,99.90
2018-02-11T19:12:35.846Z,99.90
2018-02-11T19:15:03.329Z,99.90
2018-02-11T19:17:30.789Z,99.90
2018-02-11T19:19:58.269Z,99.90
2018-02-11T19:22:25.767Z,99.90
2018-02-11T19:24:53.221Z,99.90
2018-02-11T19:27:20.710Z,99.90
2018-02-11T19:29:49.302Z,99.90
2018-02-11T19:32:16.997Z,99.90
2018-02-11T19:34:44.437Z,99.60
2018-02-11T19:37:11.915Z,99.70
2018-02-11T19:39:39.548Z,99.60
2018-02-11T19:42:07.053Z,99.90
2018-02-11T19:44:34.517Z,99.90
2018-02-11T19:47:02.032Z,99.90
2018-02-11T19:49:29.529Z,99.80
2018-02-11T19:51:57.006Z,99.90
2018-02-11T19:54:24.456Z,99.90
2018-02-11T19:56:52.732Z,99.50
2018-02-11T19:59:20.196Z,99.50
2018-02-11T20:01:47.734Z,99.50
2018-02-11T20:04:15.199Z,99.60
2018-02-11T20:06:42.697Z,99.10
2018-02-11T20:09:10.153Z,99.40
2018-02-11T20:11:37.629Z,99.20
2018-02-11T20:14:05.089Z,99.20
2018-02-11T20:16:32.577Z,99.40
2018-02-11T20:19:00.053Z,99.10
2018-02-11T20:21:29.047Z,99.30
2018-02-11T20:23:57.497Z,99.20
2018-02-11T20:26:25.746Z,99.40
2018-02-11T20:28:53.236Z,99.40
2018-02-11T20:31:20.713Z,99.60
2018-02-11T20:33:48.922Z,99.80
2018-02-11T20:36:16.396Z,99.50
2018-02-11T20:38:43.837Z,99.10
2018-02-11T20:41:12.087Z,98.70
2018-02-11T20:43:39.560Z,98.70
2018-02-11T20:46:07.001Z,98.40
2018-02-11T20:48:34.488Z,98.80
2018-02-11T20:51:01.930Z,99.20
2018-02-11T20:53:30.229Z,99.10
2018-02-11T20:55:58.429Z,99.20
2018-02-11T20:58:25.900Z,99.20
2018-02-11T21:00:53.406Z,99.70
2018-02-11T21:03:20.876Z,99.90
2018-02-11T21:05:48.329Z,99.90
2018-02-11T21:08:15.796Z,99.90
2018-02-11T21:10:43.252Z,99.90
2018-02-11T21:13:10.733Z,99.90
2018-02-11T21:15:38.200Z,99.90
2018-02-11T21:18:05.676Z,99.90
2018-02-11T21:20:33.121Z,99.90
2018-02-11T21:23:00.599Z,99.90
2018-02-11T21:25:28.042Z,99.90
2018-02-11T21:27:56.284Z,99.90
2018-02-11T21:30:23.725Z,99.90
2018-02-11T21:32:51.197Z,99.90
2018-02-11T21:35:18.645Z,99.90
2018-02-11T21:37:46.125Z,99.90
2018-02-11T21:40:14.333Z,99.90
2018-02-11T21:42:41.801Z,99.90
2018-02-11T21:45:09.242Z,99.90
2018-02-11T21:47:37.483Z,99.90
2018-02-11T21:50:04.931Z,99.90
2018-02-11T21:52:32.408Z,99.90
2018-02-11T21:54:59.850Z,99.90
2018-02-11T21:57:28.087Z,99.90
2018-02-11T21:59:55.532Z,99.90
2018-02-11T22:02:23.007Z,99.90
2018-02-11T22:04:50.453Z,99.90
2018-02-11T22:07:18.693Z,99.90
2018-02-11T22:09:46.140Z,99.90
2018-02-11T22:12:13.616Z,99.90
2018-02-11T22:14:41.065Z,99.90
2018-02-11T22:17:08.540Z,99.90
2018-02-11T22:19:36.022Z,99.90
2018-02-11T22:22:03.469Z,99.90
2018-02-11T22:24:31.700Z,99.90
2018-02-11T22:26:59.144Z,99.90
2018-02-11T22:29:26.620Z,99.90
2018-02-11T22:31:54.082Z,99.60
2018-02-11T22:34:22.254Z,99.70
2018-02-11T22:36:50.467Z,98.80
2018-02-11T22:39:17.961Z,98.70
2018-02-11T22:41:45.390Z,98.40
2018-02-11T22:44:13.620Z,97.90
2018-02-11T22:46:41.072Z,97.80
2018-02-11T22:49:08.544Z,97.40
2018-02-11T22:51:36.001Z,97.40
2018-02-11T22:54:03.472Z,98.10
2018-02-11T22:56:30.914Z,97.80
2018-02-11T22:58:58.389Z,97.10
2018-02-11T23:01:25.820Z,96.50
2018-02-11T23:03:53.384Z,96.30
2018-02-11T23:06:21.644Z,96.40
2018-02-11T23:08:49.120Z,96.40
2018-02-11T23:11:16.571Z,95.60
2018-02-11T23:13:44.821Z,94.50
2018-02-11T23:16:12.266Z,94.40
2018-02-11T23:18:39.741Z,94.40
2018-02-11T23:21:07.212Z,93.70
2018-02-11T23:23:34.661Z,93.60
2018-02-11T23:26:02.133Z,94.20
2018-02-11T23:28:29.581Z,95.50
2018-02-11T23:30:57.834Z,95.60
2018-02-11T23:33:25.408Z,95.50
2018-02-11T23:35:52.872Z,96.20
2018-02-11T23:38:20.321Z,97.00
2018-02-11T23:40:47.789Z,98.40
2018-02-11T23:43:15.250Z,99.10
2018-02-11T23:45:42.736Z,97.80
2018-02-11T23:48:10.174Z,98.70
2018-02-11T23:50:38.408Z,99.90
2018-02-11T23:53:05.864Z,99.90
2018-02-11T23:55:33.345Z,99.90
2018-02-11T23:58:00.788Z,99.90
